Vicentina, Brazil
Current Conditions -  °F | °C
As of 1:00 PM on Saturday 20 Dec 2014 (Local Time) from SBCG Reporting Station
Thunderstorm Thunderstorm  
Wind Chill: 72°   Ceiling: Unl
Heat Index: 72°   Visibility: 4mi
Dew Point: 70°   Wind: 10mph
Humidity: 94%   Direction: 40°NE
Pressure: NA   Gusts: NA
Location:  22.41°S, 54.44°W
Report Text: SBCG 201600Z 04009KT 6000 -TSRA SCT023 FEW035CB SCT100 22/21 Q1009 RERA
Loading
Personal Weather Stations






























Interactive Weather Map New forecast layout! Learn more

10-Day Weather Forecast

Advertisements
Track Severe Weather on mobile